aviador You're here:

SCIE Decoded Metar

CONCEPCION in CHILE
Report Time2018-05-21 20:00:00
UTC Time2018-05-21 20:27:45
Flight Rules vfr VFR
Wind200° at 07 kt
W.Decomp.*RWY 20: 7.0 kt HW 0.7 kt LCW
W.Rank200° ranks 8
Current wind is above 200° avg. (4.9)
Visibility9999 m
Phenomena:N/A
Clouds:N/A
Expected CloudBase > 4,000 ft AGL from Temp-Dew spread
CeilingNone
Temp13°C (ISA -2)
Dew Point03°C (51% RH)
AAT9.0°C
QNH1022 hPa
Density Alt-371 ft
Elevation52 ft
Report Wrong Elevation
Raw Report
SCIE 212000Z 20007KT CAVOK 13/03 Q1022=

Extra information for SCIE:More info

Metar Taf Metar & Taf Last 4 Metars F.Rules Stats Wind Profile Meteogram Temp Stats Airport Information Weather charts Add Link Nearby VenuesMetar ALERT Operation Metar Decoded Social comments